Time;durP1;ratioP1;P1;durP2;ratioP2;P2;SDS_P1;SDS_P2;PMS_P1;PMS_P2;Temp;Humidity;BMP_temperature;BMP_pressure;BME280_temperature;BME280_humidity;BME280_pressure;Samples;Min_cycle;Max_cycle;Signal;HPM_P1;HPM_P2
2022/06/05 00:01:13;;;;;;;940.60;43.05;;;8.10;99.90;;;6.94;100.00;101891.50;4900977;28;20062;-77
2022/06/05 00:03:54;;;;;;;27.75;19.05;;;8.10;99.90;;;6.90;100.00;101881.97;4923202;28;20205;-77
2022/06/05 00:06:55;;;;;;;75.40;24.67;;;8.10;99.90;;;6.75;100.00;101882.16;4916815;28;20061;-77
2022/06/05 00:09:57;;;;;;;118.30;24.63;;;8.00;99.90;;;6.58;100.00;101888.44;4873471;28;20038;-77
2022/06/05 00:12:56;;;;;;;33.72;19.98;;;7.80;99.90;;;6.49;100.00;101890.31;4920760;28;20023;-77
2022/06/05 00:15:22;;;;;;;36.83;22.50;;;7.80;99.90;;;6.43;100.00;101883.38;4929856;28;20046;-77
2022/06/05 00:17:48;;;;;;;40.25;24.13;;;7.70;99.90;;;6.42;100.00;101883.44;4926173;28;20034;-76
2022/06/05 00:20:14;;;;;;;42.78;25.05;;;7.70;99.90;;;6.49;100.00;101887.69;4945547;28;20023;-77
2022/06/05 00:22:41;;;;;;;55.17;26.25;;;7.80;99.90;;;6.54;100.00;101885.88;4945290;28;20086;-77
2022/06/05 00:25:13;;;;;;;61.60;30.85;;;7.90;99.90;;;6.62;100.00;101884.06;4893446;28;20049;-77
2022/06/05 00:27:58;;;;;;;62.33;29.90;;;7.90;99.90;;;6.83;100.00;101890.78;4927601;28;20031;-77
2022/06/05 00:30:42;;;;;;;65.15;28.95;;;8.20;99.90;;;7.10;100.00;101884.31;4946213;28;20031;-77
2022/06/05 00:33:28;;;;;;;58.47;27.45;;;8.40;99.90;;;7.18;100.00;101874.59;4935305;28;20084;-78
2022/06/05 00:36:30;;;;;;;63.90;30.20;;;8.40;99.90;;;7.28;100.00;101879.69;4931533;28;20494;-78
2022/06/05 00:39:17;;;;;;;57.97;28.00;;;8.50;99.90;;;7.31;100.00;101885.75;4927489;28;20053;-77
2022/06/05 00:42:02;;;;;;;;;;;8.50;99.90;;;7.31;100.00;101879.66;4900216;28;20727;-77
2022/06/05 00:44:40;;;;;;;59.47;26.58;;;8.50;99.90;;;7.29;100.00;101884.06;4932028;28;19922;-77
2022/06/05 00:47:11;;;;;;;26.25;16.70;;;8.50;99.90;;;7.26;100.00;101881.50;4914437;28;20529;-77
2022/06/05 00:50:01;;;;;;;19.27;14.27;;;8.40;99.90;;;7.17;100.00;101882.47;4915606;28;20047;-77
2022/06/05 00:52:32;;;;;;;26.55;16.00;;;8.40;99.90;;;7.04;100.00;101889.66;4919939;28;20030;-77
2022/06/05 00:54:58;;;;;;;17.90;13.63;;;8.20;99.90;;;6.92;100.00;101895.03;4907528;28;21511;-77
2022/06/05 00:57:31;;;;;;;16.08;12.15;;;8.20;99.90;;;6.81;100.00;101884.69;4932009;28;20487;-77
2022/06/05 00:59:59;;;;;;;26.15;16.02;;;8.10;99.90;;;6.72;100.00;101890.91;4915308;28;20051;-77
2022/06/05 01:02:25;;;;;;;27.67;16.70;;;8.00;99.90;;;6.67;100.00;101884.00;4908530;28;20372;-77
2022/06/05 01:04:52;;;;;;;17.48;12.20;;;7.90;99.90;;;6.62;100.00;101883.19;4883647;28;20033;-77
2022/06/05 01:07:22;;;;;;;15.32;11.45;;;7.90;99.90;;;6.56;100.00;101884.97;4895328;28;20141;-77
2022/06/05 01:09:50;;;;;;;16.63;11.27;;;7.80;99.90;;;6.50;100.00;101892.91;4903500;28;20045;-77
2022/06/05 01:12:44;;;;;;;14.80;10.10;;;7.70;99.90;;;6.43;100.00;101885.16;4928398;28;20029;-76
2022/06/05 01:15:33;;;;;;;22.13;13.38;;;7.60;99.90;;;6.33;100.00;101889.63;4929151;28;20034;-77
2022/06/05 01:18:26;;;;;;;20.40;14.07;;;7.50;99.90;;;6.25;100.00;101892.31;4930474;28;20038;-77
2022/06/05 01:21:07;;;;;;;32.30;19.75;;;7.50;99.90;;;6.20;100.00;101890.59;4948882;28;20089;-77
2022/06/05 01:24:13;;;;;;;37.10;19.77;;;7.50;99.90;;;6.19;100.00;101894.97;4913044;28;20034;-77
2022/06/05 01:26:52;;;;;;;44.17;24.02;;;7.50;99.90;;;6.21;100.00;101897.59;4968209;28;20053;-78
2022/06/05 01:29:39;;;;;;;36.28;20.42;;;7.40;99.90;;;6.23;100.00;101895.81;4939287;28;20046;-77
2022/06/05 01:32:14;;;;;;;;;;;7.50;99.90;;;6.10;100.00;101905.53;4901391;28;20033;-77
2022/06/05 01:35:03;;;;;;;764.08;23.80;;;7.30;99.90;;;5.86;100.00;101902.22;4933450;28;19910;-77
2022/06/05 01:37:46;;;;;;;470.05;12.38;;;7.10;99.90;;;5.61;100.00;101901.53;4974825;28;20132;-77
2022/06/05 01:40:25;;;;;;;566.88;17.20;;;6.90;99.90;;;5.46;100.00;101891.19;5005135;23;20115;-73
2022/06/05 01:43:03;;;;;;;94.93;12.10;;;6.80;99.90;;;5.35;100.00;101899.09;4969350;28;20049;-73
2022/06/05 01:45:39;;;;;;;12.98;9.98;;;6.70;99.90;;;5.29;100.00;101893.91;4960935;28;20025;-72
2022/06/05 01:48:09;;;;;;;14.85;10.68;;;6.60;99.90;;;5.27;100.00;101891.31;4964416;28;20055;-72
2022/06/05 01:50:46;;;;;;;27.17;14.10;;;6.60;99.90;;;5.27;100.00;101895.66;4965599;28;20095;-73
2022/06/05 01:53:42;;;;;;;391.02;16.55;;;6.60;99.90;;;5.27;100.00;101896.53;4959684;28;20042;-71
2022/06/05 01:56:40;;;;;;;83.70;11.15;;;6.60;99.90;;;5.23;100.00;101907.00;4945343;28;20057;-72
2022/06/05 01:59:13;;;;;;;;;;;6.60;99.90;;;5.13;100.00;101899.22;4949934;28;20093;-72
2022/06/05 02:01:45;;;;;;;95.63;10.02;;;6.50;99.90;;;5.08;100.00;101894.91;4960717;28;19910;-72
2022/06/05 02:04:20;;;;;;;26.90;13.57;;;6.50;99.90;;;5.08;100.00;101884.47;4950205;28;20415;-71
2022/06/05 02:07:27;;;;;;;25.10;12.85;;;6.40;99.90;;;5.10;100.00;101883.56;4949051;28;20051;-71
2022/06/05 02:10:13;;;;;;;27.67;13.90;;;6.40;99.90;;;5.12;100.00;101888.78;4938303;28;20059;-72
2022/06/05 02:12:39;;;;;;;23.90;13.73;;;6.40;99.90;;;5.13;100.00;101888.75;4952718;28;20219;-71
2022/06/05 02:15:07;;;;;;;31.85;14.63;;;6.40;99.90;;;5.16;100.00;101893.09;4953723;28;20030;-72
2022/06/05 02:17:35;;;;;;;305.52;14.30;;;6.40;99.90;;;5.12;100.00;101897.50;4961116;28;20483;-72
2022/06/05 02:20:05;;;;;;;173.77;11.85;;;6.40;99.90;;;5.05;100.00;101890.53;4961157;28;20019;-72
2022/06/05 02:22:47;;;;;;;465.73;17.17;;;6.40;99.90;;;5.02;100.00;101890.56;4963103;28;20114;-72
2022/06/05 02:25:16;;;;;;;52.97;13.07;;;6.30;99.90;;;5.00;100.00;101886.25;4937663;28;20074;-71
2022/06/05 02:27:42;;;;;;;24.45;12.07;;;6.40;99.90;;;5.00;100.00;101888.84;4962452;28;20552;-72
2022/06/05 02:30:10;;;;;;;25.70;13.55;;;6.30;99.90;;;5.01;100.00;101883.63;4938794;28;20047;-72
2022/06/05 02:32:57;;;;;;;371.50;15.75;;;6.30;99.90;;;5.00;100.00;101883.63;4961498;28;20034;-73
2022/06/05 02:35:50;;;;;;;221.35;15.00;;;6.20;99.90;;;4.93;100.00;101880.19;4953822;28;20681;-73
2022/06/05 02:39:11;;;;;;;39.60;18.58;;;6.20;99.90;;;4.88;100.00;101885.44;4952696;28;20129;-72
2022/06/05 02:42:14;;;;;;;82.18;19.52;;;6.20;99.90;;;4.86;100.00;101884.56;4961694;28;20040;-71
2022/06/05 02:45:02;;;;;;;59.65;18.13;;;6.20;99.90;;;4.91;100.00;101881.94;4937947;28;20102;-71
2022/06/05 02:48:24;;;;;;;486.00;29.63;;;6.30;99.90;;;5.05;100.00;101887.06;4953084;28;20031;-72
2022/06/05 02:51:07;;;;;;;138.02;21.83;;;6.40;99.90;;;5.15;100.00;101888.75;4955107;28;20043;-71
2022/06/05 02:53:50;;;;;;;33.75;17.67;;;6.40;99.90;;;5.28;100.00;101886.94;4957152;28;20027;-71
2022/06/05 02:56:17;;;;;;;108.53;19.58;;;6.50;99.90;;;5.34;100.00;101885.16;4953555;28;20543;-71
2022/06/05 02:58:46;;;;;;;456.45;26.75;;;6.60;99.90;;;5.43;100.00;101892.06;4935222;28;20446;-71
2022/06/05 03:03:57;;;;;;;638.40;38.67;;;6.70;99.90;;;5.54;100.00;101882.41;4949349;28;20090;-71
2022/06/05 03:06:22;;;;;;;409.58;32.45;;;6.80;99.90;;;5.63;100.00;101884.09;4963041;28;20491;-72
2022/06/05 03:08:48;;;;;;;122.60;26.83;;;6.90;99.90;;;5.73;100.00;101871.84;4960707;28;20049;-72
2022/06/05 03:11:14;;;;;;;122.07;26.17;;;7.00;99.90;;;5.83;100.00;101870.88;4944813;28;20043;-71
2022/06/05 03:13:40;;;;;;;520.17;35.67;;;7.10;99.90;;;5.96;100.00;101871.66;4941701;28;20035;-71
2022/06/05 03:16:07;;;;;;;169.32;26.23;;;7.20;99.90;;;6.07;100.00;101863.69;4952879;28;20047;-72
2022/06/05 03:18:34;;;;;;;675.20;42.63;;;7.30;99.90;;;6.18;100.00;101866.22;4961412;28;20088;-71
2022/06/05 03:21:00;;;;;;;720.55;43.78;;;7.40;99.90;;;6.24;100.00;101868.78;4951651;28;20081;-72
2022/06/05 03:23:26;;;;;;;189.63;28.70;;;7.50;99.90;;;6.35;100.00;101869.53;4962074;28;21063;-72
2022/06/05 03:25:53;;;;;;;543.63;45.08;;;7.60;99.90;;;6.50;100.00;101868.47;4942198;28;20023;-72
2022/06/05 03:28:18;;;;;;;294.52;28.10;;;7.60;99.90;;;6.60;100.00;101859.66;4975937;28;20154;-72
2022/06/05 03:30:45;;;;;;;417.17;37.38;;;7.70;99.90;;;6.63;100.00;101861.34;4943631;28;20484;-72
2022/06/05 03:33:11;;;;;;;159.05;25.65;;;7.80;99.90;;;6.62;100.00;101855.25;4951679;28;20027;-72
2022/06/05 03:35:43;;;;;;;434.90;34.38;;;7.80;99.90;;;6.70;100.00;101853.44;4942866;28;20023;-71
2022/06/05 03:38:09;;;;;;;577.40;43.53;;;8.00;99.90;;;6.92;100.00;101856.63;4951340;28;20046;-72
2022/06/05 03:40:41;;;;;;;608.78;34.28;;;8.30;99.90;;;7.29;100.00;101865.72;4962470;28;20540;-72
2022/06/05 03:43:07;;;;;;;435.02;35.58;;;8.70;99.90;;;7.75;100.00;101865.88;4944116;28;20030;-72
2022/06/05 03:45:33;;;;;;;147.07;28.65;;;9.30;99.90;;;8.46;100.00;101871.63;4960661;28;20132;-72
2022/06/05 03:47:58;;;;;;;106.95;33.10;;;10.30;99.90;;;9.58;100.00;101877.94;4925432;28;20131;-72
2022/06/05 03:50:24;;;;;;;44.53;24.92;;;12.00;99.90;;;11.40;100.00;101891.38;4952567;28;20122;-72
2022/06/05 03:52:50;;;;;;;42.65;22.40;;;13.60;99.90;;;13.27;96.98;101897.16;4950932;28;20038;-73
2022/06/05 03:55:20;;;;;;;27.50;19.85;;;15.20;99.90;;;14.95;83.80;101899.75;4954748;28;20038;-71
2022/06/05 03:57:47;;;;;;;27.73;18.30;;;16.70;99.90;;;16.59;75.02;101906.69;4951501;28;20062;-72
2022/06/05 04:00:14;;;;;;;18.23;14.52;;;18.10;99.90;;;18.18;68.55;101911.13;4926839;28;20047;-72
2022/06/05 04:02:40;;;;;;;15.30;12.10;;;19.40;99.90;;;19.58;62.64;101923.75;4949668;28;20042;-73
2022/06/05 04:05:08;;;;;;;15.65;12.00;;;20.70;99.90;;;20.75;57.79;101930.09;4945719;28;20049;-73
2022/06/05 04:07:34;;;;;;;12.13;9.73;;;21.60;99.90;;;21.57;53.26;101937.66;4936344;28;20046;-73
2022/06/05 04:10:00;;;;;;;12.45;9.65;;;22.50;99.90;;;22.60;51.60;101938.75;4952211;28;20038;-72
2022/06/05 04:12:26;;;;;;;11.95;9.65;;;23.40;99.90;;;23.52;49.13;101955.56;4934503;28;20834;-73
2022/06/05 04:14:52;;;;;;;10.05;8.63;;;24.10;98.10;;;24.36;47.37;101957.53;4951062;28;20038;-73
2022/06/05 04:17:18;;;;;;;9.88;8.88;;;24.80;97.80;;;25.14;45.72;101974.09;4954165;28;20066;-73
2022/06/05 04:19:43;;;;;;;13.60;11.25;;;25.40;96.40;;;25.69;44.34;101971.03;4951202;28;22977;-73
2022/06/05 04:22:09;;;;;;;10.73;9.02;;;25.90;95.60;;;26.42;42.86;101974.16;4951504;28;20042;-74
2022/06/05 04:24:36;;;;;;;;;;;25.90;94.30;;;26.93;41.06;101990.94;4950607;28;20126;-73
2022/06/05 04:27:02;;;;;;;15.13;10.25;;;26.70;93.40;;;27.34;40.57;101996.88;4951289;28;19915;-72
2022/06/05 04:29:27;;;;;;;;;;;26.70;93.20;;;28.31;41.02;102004.31;4946214;28;20039;-72
2022/06/05 04:31:53;;;;;;;14.82;10.43;;;27.80;92.70;;;28.82;38.75;102016.22;4962585;28;19910;-72
2022/06/05 04:34:22;;;;;;;11.93;9.55;;;28.30;92.00;;;29.44;37.81;102024.16;4965037;28;20126;-73
2022/06/05 04:36:48;;;;;;;10.68;9.57;;;28.80;90.80;;;30.04;36.30;102025.84;4942921;28;20575;-74
2022/06/05 04:39:15;;;;;;;9.88;8.93;;;29.10;90.90;;;30.32;36.41;102025.53;4944972;28;20419;-72
2022/06/05 04:41:42;;;;;;;10.43;9.23;;;29.50;91.20;;;31.11;35.36;102039.34;4951228;28;20069;-73
2022/06/05 04:44:14;;;;;;;9.55;8.55;;;29.90;89.60;;;31.63;34.40;102054.28;4961533;28;20027;-72
2022/06/05 04:46:40;;;;;;;11.85;10.18;;;30.40;90.40;;;32.20;33.68;102067.53;4937278;28;20110;-73
2022/06/05 04:49:06;;;;;;;13.60;11.43;;;30.80;87.40;;;32.21;33.25;102060.22;4955260;28;20047;-72
2022/06/05 04:51:34;;;;;;;13.35;10.30;;;31.00;87.80;;;32.56;33.20;102068.81;4943777;28;20042;-72
2022/06/05 04:54:01;;;;;;;13.52;12.15;;;31.20;86.10;;;32.73;32.93;102075.81;4953800;28;20015;-72
2022/06/05 04:56:28;;;;;;;12.52;10.38;;;31.30;86.80;;;33.10;32.13;102076.81;4944994;28;20384;-73
2022/06/05 04:58:55;;;;;;;15.30;10.90;;;31.50;86.30;;;33.42;31.90;102085.63;4938422;28;20082;-73
2022/06/05 05:01:29;;;;;;;30.20;10.05;;;31.20;84.30;;;31.27;33.47;102088.28;4927578;28;20110;-73
2022/06/05 05:04:04;;;;;;;21.85;9.88;;;30.00;86.60;;;29.35;36.38;102068.56;4961604;28;20057;-72
2022/06/05 05:06:32;;;;;;;72.15;9.80;;;28.80;87.00;;;28.13;37.85;102058.50;4939000;28;20685;-72
2022/06/05 05:08:58;;;;;;;90.80;7.88;;;27.50;89.20;;;26.31;40.54;102039.97;4960312;28;20034;-72
2022/06/05 05:11:24;;;;;;;88.13;7.90;;;26.70;90.80;;;26.70;40.26;102034.53;4948003;28;20041;-72
2022/06/05 05:13:54;;;;;;;8.07;7.25;;;26.50;91.50;;;27.99;38.42;102051.78;4954771;28;20027;-73
2022/06/05 05:16:20;;;;;;;27.30;7.68;;;26.80;91.20;;;28.52;37.02;102060.03;4940557;28;20053;-73
2022/06/05 05:18:46;;;;;;;63.25;9.05;;;26.90;91.10;;;28.37;37.45;102060.56;4962825;28;20034;-72
2022/06/05 05:21:16;;;;;;;37.22;9.10;;;27.00;90.80;;;27.95;38.38;102057.66;4926010;28;20122;-73
2022/06/05 05:23:43;;;;;;;24.95;8.15;;;27.00;91.50;;;28.01;38.41;102052.47;4957603;28;20032;-73
2022/06/05 05:26:13;;;;;;;14.48;8.52;;;26.80;90.80;;;27.42;39.11;102053.78;4958293;28;20154;-73
2022/06/05 05:28:40;;;;;;;99.68;9.40;;;26.20;90.20;;;25.91;41.09;102042.78;4954486;28;20030;-72
2022/06/05 05:31:31;;;;;;;86.82;9.48;;;25.50;91.70;;;25.69;42.83;102041.16;4954204;28;20047;-72
2022/06/05 05:33:58;;;;;;;23.50;9.48;;;25.80;92.70;;;28.54;38.69;102050.75;4951905;28;20356;-73
2022/06/05 05:36:26;;;;;;;17.92;8.45;;;26.70;92.50;;;30.66;35.56;102060.66;4958930;28;20030;-73
2022/06/05 05:44:23;;;;;;;11.80;9.60;;;28.50;90.40;;;31.36;34.75;102067.31;4923681;28;20034;-72
2022/06/05 05:46:49;;;;;;;13.15;9.93;;;29.20;88.50;;;31.78;33.92;102065.25;4962857;28;20022;-73
2022/06/05 05:49:15;;;;;;;14.30;10.85;;;29.30;89.30;;;31.63;34.10;102067.91;4953769;28;20035;-75
2022/06/05 05:51:42;;;;;;;11.55;10.35;;;30.00;89.70;;;33.02;32.55;102072.25;4947935;28;20051;-73
2022/06/05 05:54:09;;;;;;;14.18;11.25;;;30.40;85.60;;;32.45;33.04;102056.44;4935841;28;20027;-74
2022/06/05 05:56:35;;;;;;;14.32;11.35;;;30.90;87.30;;;33.47;31.71;102058.59;4954498;28;20063;-72
2022/06/05 05:59:01;;;;;;;15.40;12.13;;;31.40;85.70;;;33.42;32.38;102059.19;4936325;28;20036;-73
2022/06/05 06:01:27;;;;;;;13.20;11.27;;;31.30;84.90;;;32.90;33.04;102057.38;4963695;28;20404;-72
2022/06/05 06:03:54;;;;;;;14.35;10.82;;;31.50;85.50;;;33.46;32.40;102074.13;4961709;28;20066;-72
2022/06/05 06:06:29;;;;;;;17.08;12.65;;;31.70;85.80;;;33.10;32.75;102068.63;4947433;28;20031;-73
2022/06/05 06:08:58;;;;;;;15.98;12.85;;;31.60;84.90;;;33.00;33.21;102057.09;4957678;28;20050;-73
2022/06/05 06:11:25;;;;;;;16.33;12.73;;;31.60;85.50;;;33.02;32.71;102049.56;4945050;28;20034;-72
2022/06/05 06:13:50;;;;;;;19.02;13.38;;;31.80;86.00;;;33.50;32.40;102061.81;4962495;28;20504;-73
2022/06/05 06:16:16;;;;;;;15.48;12.25;;;32.20;84.80;;;33.83;32.53;102053.16;4953822;28;20049;-74
2022/06/05 06:18:42;;;;;;;16.95;12.90;;;32.50;83.80;;;34.18;31.74;102060.69;4951356;28;20114;-74
2022/06/05 06:21:08;;;;;;;17.75;11.93;;;32.70;82.30;;;34.13;31.83;102074.06;4940112;28;20114;-74
2022/06/05 06:23:34;;;;;;;16.55;12.48;;;33.10;83.70;;;34.54;31.16;102076.97;4925148;28;20574;-73
2022/06/05 06:26:03;;;;;;;15.20;11.68;;;33.40;83.20;;;34.93;30.70;102086.56;4955813;28;20592;-73
2022/06/05 06:28:28;;;;;;;15.48;12.13;;;33.80;83.00;;;35.78;30.08;102087.22;4936289;28;20042;-74
2022/06/05 06:30:54;;;;;;;16.60;11.23;;;34.50;80.10;;;36.39;29.58;102080.78;4954318;28;20023;-74
2022/06/05 06:33:20;;;;;;;18.42;12.10;;;34.60;79.80;;;34.85;31.22;102067.56;4951389;28;20122;-73
2022/06/05 06:35:46;;;;;;;13.88;11.50;;;33.90;78.70;;;33.58;32.82;102055.38;4955446;28;20031;-73
2022/06/05 06:38:12;;;;;;;14.90;12.20;;;33.20;80.50;;;33.22;33.62;102047.13;4949922;28;20110;-73
2022/06/05 06:40:37;;;;;;;14.40;10.30;;;33.10;81.00;;;33.52;33.08;102056.13;4944449;28;20488;-73
2022/06/05 06:43:04;;;;;;;17.27;10.30;;;32.80;79.10;;;32.30;33.80;102040.03;4951010;28;20562;-74
2022/06/05 06:45:30;;;;;;;13.93;11.75;;;32.10;80.80;;;31.44;35.16;102028.34;4978992;28;20558;-73
2022/06/05 06:47:55;;;;;;;17.23;12.25;;;31.50;81.50;;;30.93;35.55;102028.69;4941475;28;20073;-74
2022/06/05 06:50:21;;;;;;;14.55;11.43;;;31.50;84.40;;;31.71;35.21;102012.53;4948118;28;20114;-73
2022/06/05 06:52:47;;;;;;;14.30;11.55;;;31.30;84.40;;;30.99;36.37;102018.97;4952132;28;20101;-73
2022/06/05 06:55:16;;;;;;;16.83;11.18;;;31.10;84.80;;;31.39;36.15;102009.81;4954523;28;20110;-73
2022/06/05 06:57:44;;;;;;;16.35;11.70;;;31.20;86.90;;;31.83;36.20;101990.16;4960050;28;20035;-73
2022/06/05 07:00:16;;;;;;;13.75;11.27;;;31.80;86.10;;;32.71;34.30;101996.06;4944495;28;20039;-73
2022/06/05 07:02:42;;;;;;;14.93;11.52;;;31.50;82.80;;;30.87;36.76;101975.00;4955926;28;20030;-74
2022/06/05 07:05:09;;;;;;;14.05;11.32;;;30.00;84.40;;;28.08;41.39;101948.94;4953404;28;20059;-73
2022/06/05 07:07:35;;;;;;;18.90;11.80;;;29.30;87.50;;;28.21;41.73;101938.59;4944091;28;20038;-72
2022/06/05 07:10:01;;;;;;;15.85;11.95;;;29.20;88.40;;;28.93;39.96;101938.34;4978618;28;20023;-72
2022/06/05 07:12:27;;;;;;;15.10;11.45;;;29.20;89.30;;;28.98;39.81;101944.09;4960091;28;20042;-72
2022/06/05 07:14:52;;;;;;;14.73;12.02;;;29.40;89.00;;;29.09;39.66;101957.41;4951302;28;20372;-73
2022/06/05 07:17:18;;;;;;;13.43;11.30;;;29.40;89.50;;;29.43;39.35;101951.06;4948939;28;20066;-73
2022/06/05 07:19:44;;;;;;;17.83;12.27;;;29.40;89.20;;;29.58;39.74;101945.84;4961187;28;20803;-72
2022/06/05 07:22:10;;;;;;;14.85;11.68;;;29.90;89.80;;;30.71;38.13;101956.00;4943360;28;20498;-73
2022/06/05 07:24:35;;;;;;;15.77;12.30;;;30.20;88.20;;;30.53;38.02;101965.22;4952837;28;20038;-73
2022/06/05 07:27:01;;;;;;;16.05;11.80;;;30.30;88.70;;;30.70;38.10;101960.59;4957202;28;21509;-72
2022/06/05 07:29:27;;;;;;;15.15;12.43;;;30.30;86.30;;;30.01;38.81;101960.16;4953907;28;20356;-73
2022/06/05 07:31:53;;;;;;;18.63;12.25;;;29.90;88.60;;;29.43;40.04;101959.22;4953619;28;20438;-73
2022/06/05 07:34:18;;;;;;;16.90;11.60;;;30.30;89.60;;;30.76;38.55;101959.91;4952028;28;20467;-73
2022/06/05 07:36:44;;;;;;;14.95;10.85;;;30.70;86.90;;;30.59;37.86;101964.53;4941142;28;20102;-73
2022/06/05 07:39:10;;;;;;;13.35;10.60;;;29.90;84.40;;;28.32;40.76;101954.56;4943254;28;20066;-74
2022/06/05 07:41:37;;;;;;;11.98;9.80;;;29.80;88.30;;;29.40;39.91;101948.69;4950156;28;20447;-73
2022/06/05 07:44:05;;;;;;;14.35;9.38;;;29.80;90.10;;;29.95;40.16;101955.41;4946341;28;20035;-74
2022/06/05 07:46:33;;;;;;;11.40;9.13;;;30.10;88.40;;;30.22;38.55;101955.06;4960511;28;20027;-73
2022/06/05 07:48:59;;;;;;;12.90;7.65;;;30.30;87.70;;;30.57;38.66;101965.72;4956444;28;20023;-74
2022/06/05 07:54:27;;;;;;;10.20;6.63;;;30.90;86.00;;;30.98;36.51;101974.63;4955162;28;20138;-74
2022/06/05 07:56:55;;;;;;;11.68;7.05;;;30.70;84.00;;;30.17;36.92;101957.44;4956478;28;20038;-73
2022/06/05 07:59:21;;;;;;;10.40;6.70;;;30.30;84.00;;;29.56;38.46;101945.16;4928847;28;20032;-74
2022/06/05 08:01:46;;;;;;;8.80;6.45;;;30.20;86.50;;;30.09;37.72;101937.56;4952219;28;20023;-74
2022/06/05 08:04:12;;;;;;;9.85;5.90;;;29.80;82.70;;;28.58;39.14;101946.47;4949986;28;20117;-74
2022/06/05 08:06:39;;;;;;;8.68;5.88;;;28.90;84.70;;;27.48;40.66;101931.47;4951105;28;20027;-73
2022/06/05 08:09:07;;;;;;;9.32;5.43;;;28.40;87.80;;;27.57;40.88;101924.28;4952037;28;21607;-73
2022/06/05 08:11:33;;;;;;;7.53;4.72;;;27.90;86.40;;;27.23;41.04;101916.00;4959837;28;20034;-74
2022/06/05 08:14:00;;;;;;;8.23;5.50;;;27.50;88.90;;;27.08;41.98;101910.22;4940083;28;20034;-73
2022/06/05 08:16:27;;;;;;;12.25;5.25;;;27.60;89.50;;;27.59;40.77;101901.50;4951701;28;20031;-73
2022/06/05 08:18:54;;;;;;;9.82;4.53;;;27.70;88.40;;;27.64;40.25;101908.28;4936299;28;20069;-73
2022/06/05 08:21:22;;;;;;;8.68;3.90;;;27.60;86.50;;;27.30;40.22;101904.44;4945505;28;20442;-74
2022/06/05 08:23:48;;;;;;;4.60;3.38;;;27.30;85.70;;;26.76;40.79;101906.09;4956862;28;20072;-74
2022/06/05 08:26:14;;;;;;;6.50;3.50;;;26.80;86.60;;;25.90;41.98;101901.63;4944152;28;20123;-73
2022/06/05 08:28:40;;;;;;;4.60;2.95;;;26.50;86.10;;;25.70;41.43;101900.75;4956896;28;20038;-73
2022/06/05 08:31:07;;;;;;;8.05;2.97;;;25.80;86.20;;;24.60;43.49;101884.59;4953377;28;20171;-73
2022/06/05 08:33:34;;;;;;;3.78;2.53;;;25.30;88.80;;;24.10;45.35;101870.97;4933792;28;20395;-73
2022/06/05 08:36:00;;;;;;;4.85;3.10;;;25.00;90.20;;;23.57;45.72;101879.06;4951847;28;21487;-74
2022/06/05 08:41:45;;;;;;;5.45;3.40;;;24.40;92.00;;;23.54;47.46;101870.28;4939979;28;20101;-74
2022/06/05 08:44:42;;;;;;;5.35;2.88;;;24.10;91.50;;;22.99;49.24;101855.97;4948482;28;20039;-73
2022/06/05 08:47:42;;;;;;;5.38;3.05;;;24.00;92.00;;;22.88;49.84;101846.09;4951662;28;20031;-74
2022/06/05 08:50:36;;;;;;;4.68;2.83;;;24.00;93.00;;;23.04;48.59;101834.13;4939278;28;20098;-73
2022/06/05 08:53:17;;;;;;;5.28;2.70;;;24.00;92.60;;;22.93;48.20;101825.09;4939430;28;20933;-75
2022/06/05 08:55:47;;;;;;;4.78;2.78;;;23.60;91.80;;;22.48;49.43;101821.63;4927294;28;20034;-74
2022/06/05 08:58:32;;;;;;;4.65;2.42;;;23.50;92.30;;;22.38;49.65;101828.72;4970291;28;20059;-74
2022/06/05 09:01:22;;;;;;;3.55;2.40;;;23.20;91.80;;;22.11;49.49;101813.75;4953479;28;20495;-73
2022/06/05 09:04:23;;;;;;;3.38;2.10;;;23.10;91.30;;;22.10;47.87;101804.88;4946574;28;20042;-73
2022/06/05 09:07:04;;;;;;;3.00;1.73;;;22.80;89.40;;;21.53;47.06;101804.84;4945570;28;20403;-73
2022/06/05 09:09:59;;;;;;;2.53;1.52;;;22.80;90.40;;;22.07;45.51;101806.94;4927926;28;20019;-74
2022/06/05 09:12:36;;;;;;;2.83;1.80;;;23.00;90.20;;;22.15;46.29;101807.19;4958018;28;20046;-73
2022/06/05 09:15:58;;;;;;;2.03;1.65;;;23.10;90.90;;;22.41;47.37;101799.78;4950246;28;20035;-73
2022/06/05 09:18:35;;;;;;;3.63;1.80;;;23.20;91.40;;;22.52;47.12;101798.91;4953855;28;20117;-73
2022/06/05 09:21:44;;;;;;;3.85;1.77;;;23.30;91.90;;;22.42;46.40;101789.91;4947723;28;20051;-74
2022/06/05 09:24:31;;;;;;;2.17;1.70;;;23.40;91.50;;;22.68;46.74;101785.13;4939585;28;20023;-73
2022/06/05 09:27:22;;;;;;;2.25;1.50;;;23.60;91.30;;;23.02;46.08;101774.31;4949318;28;20031;-73
2022/06/05 09:30:42;;;;;;;3.50;1.58;;;23.60;89.70;;;22.40;43.94;101773.09;4960455;28;20034;-74
2022/06/05 09:33:27;;;;;;;2.20;1.40;;;23.40;91.20;;;22.25;45.22;101778.69;4924167;28;20066;-74
2022/06/05 09:36:16;;;;;;;1.67;0.90;;;23.40;87.00;;;22.58;40.77;101792.22;4962808;28;20019;-73
2022/06/05 09:38:50;;;;;;;2.85;0.80;;;23.50;80.10;;;22.61;40.27;101787.44;4955449;28;20042;-73
2022/06/05 09:41:34;;;;;;;4.20;2.30;;;23.50;84.10;;;22.78;40.61;101777.16;4954968;28;20066;-73
2022/06/05 09:44:42;;;;;;;1.77;0.90;;;23.60;82.20;;;22.73;38.91;101786.44;4955627;28;20506;-74
2022/06/05 09:47:27;;;;;;;1.38;0.80;;;23.50;81.00;;;22.68;40.01;101795.88;4955132;28;20121;-74
2022/06/05 09:50:02;;;;;;;1.85;0.70;;;23.60;80.20;;;22.72;39.17;101806.22;4958942;28;20019;-74
2022/06/05 09:52:31;;;;;;;1.35;0.70;;;23.50;80.00;;;22.72;39.37;101798.19;4937015;28;20069;-74
2022/06/05 09:55:19;;;;;;;4.40;1.45;;;23.70;81.60;;;23.13;37.68;101788.59;4963835;28;20455;-74
2022/06/05 10:00:56;;;;;;;0.98;0.57;;;23.80;79.10;;;22.96;38.85;101797.16;4943127;28;20062;-74
2022/06/05 10:03:37;;;;;;;0.43;0.40;;;23.80;78.90;;;23.18;36.51;101803.47;4940203;28;20479;-72
2022/06/05 10:06:37;;;;;;;2.83;0.57;;;24.00;77.50;;;23.46;37.00;101808.22;4937366;28;20038;-73
2022/06/05 10:09:24;;;;;;;4.32;2.63;;;24.30;79.10;;;23.83;36.68;101805.13;4959321;28;20034;-75
2022/06/05 10:12:13;;;;;;;1.30;1.20;;;24.50;80.10;;;23.95;37.22;101804.06;4961115;28;20151;-74
2022/06/05 10:15:16;;;;;;;1.13;0.60;;;24.60;77.30;;;23.86;35.17;101804.00;4950852;28;20016;-73
2022/06/05 10:17:53;;;;;;;3.13;0.60;;;24.80;81.00;;;24.29;38.26;101792.19;4957050;28;20381;-73
2022/06/05 10:20:46;;;;;;;0.80;0.60;;;24.60;74.30;;;23.76;36.20;101806.66;4956812;28;20054;-73
2022/06/05 10:23:51;;;;;;;1.33;0.77;;;24.60;75.90;;;23.68;35.47;101801.03;4954780;28;20110;-74
2022/06/05 10:26:20;;;;;;;3.90;0.40;;;24.40;74.50;;;23.58;35.75;101790.19;4953242;28;20046;-73
2022/06/05 10:28:53;;;;;;;1.33;0.70;;;24.50;76.20;;;23.72;36.65;101797.09;4953346;28;20041;-74
2022/06/05 10:31:36;;;;;;;0.43;0.43;;;24.20;73.90;;;23.14;35.09;101797.50;4932224;28;20027;-74
2022/06/05 10:34:20;;;;;;;0.75;0.50;;;24.30;78.50;;;23.65;36.78;101793.22;4934302;28;20066;-73
2022/06/05 10:37:37;;;;;;;1.38;0.60;;;24.40;76.20;;;23.77;35.04;101794.03;4958179;28;20055;-74
2022/06/05 10:40:42;;;;;;;1.27;0.50;;;24.60;75.70;;;23.94;35.05;101791.59;4953633;28;20051;-74
2022/06/05 10:43:30;;;;;;;1.23;0.63;;;24.80;74.40;;;23.82;35.30;101806.09;4954770;28;22228;-75
2022/06/05 10:46:19;;;;;;;0.63;0.60;;;24.80;75.30;;;24.12;34.59;101802.59;4960803;28;20031;-73
2022/06/05 10:49:09;;;;;;;2.45;2.22;;;25.00;77.20;;;24.51;35.82;101797.44;4950212;28;20379;-74
2022/06/05 10:51:52;;;;;;;1.77;0.80;;;25.10;79.10;;;24.50;36.37;101787.63;4972475;28;20426;-73
2022/06/05 10:54:36;;;;;;;1.00;0.70;;;25.10;74.60;;;24.33;35.56;101790.94;4935101;28;20089;-73